NORTHERN QUEENS  -  Heat Advisory Heat Advisory     Air Quality Alert Air Quality Alert        SOUTHERN QUEENS  -  Heat Advisory Heat Advisory     Air Quality Alert Air Quality Alert      

Active alerts

Northern Queens
  Details for Northern Queens Heat Advisory  +1 additional alert
Southern Queens
  Details for Southern Queens Heat Advisory  +1 additional alert


WXM80 ListenWXM80 Stop

You find our weather info also at:

UK Metoffice

WeatherCloud

Weather Underground

Northeastern Weather Network

AWEKAS

Citizen Weather Observer Program (CWOP)

HAMweather, WeatherForYou, PWS Weather


Weather Underground History page Text

Daily Summary for December 5, 2016 Units:  English    Metric   Both
« Previous Day
Next Day »
Daily Weekly Monthly Yearly Custom
  High: Low: Average:
Temperature: 48.5 °F 38.1 °F 43.1 °F
Dew Point: 43.5 °F 28.2 °F 36.3 °F
Humidity: 96 % 66 % 78 %
Wind Speed: 8.4 mph 0.0 mph 2.8 mph
Wind Gust: 16.1 mph - -
Wind:- - WSW
Pressure: 30.10 in 29.90 in -
Precipitation: 0.07 in    
Historical Graphs
 
 
Tabular Data for December 5, 2016
Time Temperature Dew Point Pressure Wind Wind Speed Wind Gust Humidity Rainfall Rate (Hourly)
00:05 38.4 °F 28.4 °F 30.09 in Calm     67 % 0.00 in
00:10 38.3 °F 28.7 °F 30.09 in Calm     68 % 0.00 in
00:15 38.3 °F 28.3 °F 30.10 in East 0.3 mph 3.5 mph 67 % 0.00 in
00:20 38.2 °F 28.2 °F 30.10 in Calm   2.3 mph 67 % 0.00 in
00:25 38.2 °F 28.2 °F 30.10 in Calm     67 % 0.00 in
00:30 38.2 °F 28.6 °F 30.10 in Calm     68 % 0.00 in
00:35 38.2 °F 28.6 °F 30.09 in East 0.1 mph 2.3 mph 68 % 0.00 in
00:40 38.2 °F 28.2 °F 30.10 in Calm     67 % 0.00 in
00:45 38.2 °F 28.6 °F 30.09 in Calm     68 % 0.00 in
00:50 38.2 °F 28.6 °F 30.09 in Calm     68 % 0.00 in
00:55 38.2 °F 28.9 °F 30.08 in Calm     69 % 0.00 in
01:01 38.2 °F 28.9 °F 30.08 in Calm     69 % 0.00 in
01:06 38.2 °F 28.9 °F 30.09 in Calm     69 % 0.00 in
01:11 38.2 °F 29.3 °F 30.09 in Calm     70 % 0.00 in
01:16 38.1 °F 28.8 °F 30.09 in ESE 1.0 mph 3.5 mph 69 % 0.00 in
01:21 38.1 °F 28.5 °F 30.08 in SE 0.3 mph 2.3 mph 68 % 0.00 in
01:26 38.1 °F 28.8 °F 30.07 in Calm     69 % 0.00 in
01:31 38.1 °F 28.8 °F 30.07 in SE 0.1 mph 1.2 mph 69 % 0.00 in
01:36 38.1 °F 28.8 °F 30.07 in SE 0.3 mph 1.2 mph 69 % 0.00 in
01:41 38.1 °F 28.8 °F 30.07 in Calm   1.2 mph 69 % 0.00 in
01:46 38.1 °F 28.5 °F 30.07 in SE 0.3 mph 1.2 mph 68 % 0.00 in
01:52 38.2 °F 28.6 °F 30.07 in SE 2.2 mph 4.0 mph 68 % 0.00 in
01:57 38.2 °F 28.6 °F 30.06 in SE 1.4 mph 3.5 mph 68 % 0.00 in
02:02 38.3 °F 28.7 °F 30.05 in SSE 0.5 mph 2.3 mph 68 % 0.00 in
02:07 38.3 °F 28.7 °F 30.05 in SE 0.7 mph 2.3 mph 68 % 0.00 in
02:12 38.4 °F 29.1 °F 30.05 in ESE 2.3 mph 4.6 mph 69 % 0.00 in
02:17 38.4 °F 29.1 °F 30.06 in SSE 2.1 mph 3.5 mph 69 % 0.00 in
02:22 38.6 °F 29.3 °F 30.05 in SSE 3.1 mph 4.6 mph 69 % 0.00 in
02:27 38.6 °F 29.3 °F 30.05 in SE 1.4 mph 2.3 mph 69 % 0.00 in
02:32 38.8 °F 29.1 °F 30.06 in SSE 1.6 mph 3.5 mph 68 % 0.00 in
02:37 38.9 °F 29.6 °F 30.06 in SE 0.3 mph 2.3 mph 69 % 0.00 in
02:43 39.0 °F 29.7 °F 30.06 in SE 1.2 mph 2.3 mph 69 % 0.00 in
02:48 39.1 °F 29.4 °F 30.06 in SSE 0.6 mph 2.3 mph 68 % 0.00 in
02:53 39.2 °F 29.5 °F 30.07 in Calm   2.3 mph 68 % 0.00 in
02:58 39.2 °F 29.5 °F 30.07 in Calm     68 % 0.00 in
03:03 39.3 °F 29.6 °F 30.07 in SSE 0.7 mph 2.3 mph 68 % 0.00 in
03:08 39.4 °F 29.7 °F 30.08 in Calm     68 % 0.00 in
03:13 39.4 °F 29.7 °F 30.07 in SSE 1.2 mph 2.3 mph 68 % 0.00 in
03:18 39.4 °F 30.4 °F 30.07 in SSE 0.4 mph 1.2 mph 70 % 0.00 in
03:23 39.5 °F 30.9 °F 30.06 in SSE 0.1 mph 1.2 mph 71 % 0.00 in
03:29 39.4 °F 31.5 °F 30.05 in SSW 1.1 mph 4.0 mph 73 % 0.00 in
03:34 39.4 °F 32.5 °F 30.04 in East 2.1 mph 5.0 mph 76 % 0.00 in
03:40 39.4 °F 32.8 °F 30.05 in SSE 4.2 mph 8.0 mph 77 % 0.00 in
03:45 39.5 °F 33.2 °F 30.04 in SSE 1.0 mph 6.0 mph 78 % 0.00 in
03:50 39.6 °F 33.9 °F 30.04 in SSE 1.0 mph 3.0 mph 80 % 0.00 in
03:55 39.6 °F 34.2 °F 30.03 in SE 1.0 mph 3.0 mph 81 % 0.00 in
04:00 39.6 °F 34.6 °F 30.03 in SE 3.2 mph 3.5 mph 82 % 0.00 in
04:05 39.7 °F 34.6 °F 30.03 in SSE 3.0 mph 10.0 mph 82 % 0.00 in
04:10 39.7 °F 35.0 °F 30.03 in SSE 1.0 mph 7.0 mph 83 % 0.00 in
04:15 39.8 °F 35.4 °F 30.03 in SE 1.0 mph 3.0 mph 84 % 0.00 in
04:20 39.8 °F 35.4 °F 30.03 in Calm   2.3 mph 84 % 0.00 in
04:25 39.8 °F 35.7 °F 30.02 in Calm   3.0 mph 85 % 0.00 in
04:30 39.8 °F 35.7 °F 30.02 in SE 1.0 mph 4.0 mph 85 % 0.00 in
04:35 39.7 °F 35.9 °F 30.02 in SE 2.5 mph 4.0 mph 86 % 0.01 in
04:40 39.7 °F 35.9 °F 30.00 in SE 1.0 mph 5.0 mph 86 % 0.00 in
04:45 39.7 °F 36.1 °F 30.01 in SE 2.0 mph 4.0 mph 87 % 0.00 in
04:50 39.6 °F 36.0 °F 30.00 in SSE 2.0 mph 5.0 mph 87 % 0.00 in
04:55 39.6 °F 36.3 °F 30.01 in SSE 2.0 mph 4.0 mph 88 % 0.00 in
05:00 39.5 °F 36.2 °F 30.00 in SE 0.4 mph 3.5 mph 88 % 0.02 in
05:05 39.5 °F 36.2 °F 30.00 in SSE 1.1 mph 3.5 mph 88 % 0.02 in
05:10 39.5 °F 36.5 °F 30.00 in SSE 1.1 mph 4.0 mph 89 % 0.02 in
05:15 39.5 °F 36.8 °F 30.00 in Calm   1.2 mph 90 % 0.02 in
05:20 39.5 °F 36.8 °F 30.00 in Calm   1.2 mph 90 % 0.03 in
05:25 39.5 °F 36.8 °F 30.00 in SSE 1.2 mph 3.5 mph 90 % 0.02 in
05:30 39.5 °F 36.8 °F 29.99 in SSE 0.1 mph 1.2 mph 90 % 0.02 in
05:35 39.5 °F 37.1 °F 29.99 in SSE 0.1 mph 1.2 mph 91 % 0.02 in
05:40 39.5 °F 37.1 °F 29.99 in Calm     91 % 0.02 in
05:45 39.4 °F 37.0 °F 29.99 in Calm     91 % 0.02 in
05:51 39.4 °F 37.0 °F 29.99 in Calm     91 % 0.02 in
05:56 39.4 °F 37.0 °F 29.99 in Calm     91 % 0.02 in
06:01 39.4 °F 37.0 °F 29.98 in Calm     91 % 0.01 in
06:06 39.4 °F 37.3 °F 29.99 in Calm     92 % 0.01 in
06:11 39.4 °F 37.0 °F 29.98 in Calm     91 % 0.01 in
06:16 39.3 °F 36.9 °F 29.99 in Calm     91 % 0.01 in
06:21 39.3 °F 37.2 °F 29.98 in Calm     92 % 0.01 in
06:26 39.4 °F 37.3 °F 29.98 in SSE 0.1 mph 1.2 mph 92 % 0.01 in
06:31 39.4 °F 37.3 °F 29.98 in Calm     92 % 0.01 in
06:36 39.5 °F 37.4 °F 29.98 in Calm     92 % 0.01 in
06:42 39.5 °F 37.4 °F 29.98 in Calm     92 % 0.01 in
06:47 39.5 °F 37.4 °F 29.98 in Calm     92 % 0.02 in
06:52 39.5 °F 37.4 °F 29.98 in Calm     92 % 0.02 in
06:57 39.6 °F 37.5 °F 29.99 in WSW 1.6 mph 3.5 mph 92 % 0.02 in
07:02 39.7 °F 37.8 °F 29.98 in West 0.3 mph 3.5 mph 93 % 0.02 in
07:07 39.7 °F 37.8 °F 29.98 in WSW 0.3 mph 3.5 mph 93 % 0.02 in
07:12 39.8 °F 37.9 °F 29.98 in West 1.0 mph 3.5 mph 93 % 0.03 in
07:17 39.9 °F 38.0 °F 29.98 in West 2.2 mph 3.5 mph 93 % 0.02 in
07:22 40.0 °F 38.1 °F 29.98 in West 0.1 mph 1.2 mph 93 % 0.02 in
07:27 40.1 °F 38.5 °F 29.98 in West 1.8 mph 3.0 mph 94 % 0.02 in
07:33 40.1 °F 38.5 °F 29.98 in WSW 1.6 mph 3.0 mph 94 % 0.02 in
07:38 40.2 °F 38.6 °F 29.99 in WSW 0.6 mph 2.0 mph 94 % 0.02 in
07:43 40.3 °F 38.7 °F 29.99 in West 1.7 mph 3.5 mph 94 % 0.02 in
07:48 40.4 °F 38.8 °F 29.99 in Calm   2.3 mph 94 % 0.01 in
07:53 40.4 °F 38.8 °F 29.99 in Calm     94 % 0.01 in
07:58 40.4 °F 38.8 °F 29.99 in WSW 0.5 mph 2.0 mph 94 % 0.01 in
08:03 40.5 °F 38.9 °F 29.98 in WSW 1.5 mph 2.3 mph 94 % 0.02 in
08:08 40.5 °F 38.9 °F 29.98 in SW 1.3 mph 3.0 mph 94 % 0.02 in
08:13 40.5 °F 38.9 °F 29.98 in SW 0.1 mph 1.2 mph 94 % 0.01 in
08:18 40.6 °F 39.0 °F 29.98 in SW 0.2 mph 2.3 mph 94 % 0.01 in
08:24 40.6 °F 39.0 °F 29.98 in Calm   1.2 mph 94 % 0.01 in
08:29 40.7 °F 39.4 °F 29.98 in WNW 1.6 mph 3.5 mph 95 % 0.01 in
08:34 40.7 °F 39.4 °F 29.98 in West 2.1 mph 3.5 mph 95 % 0.01 in
08:39 40.7 °F 39.4 °F 29.98 in SSW 1.4 mph 3.5 mph 95 % 0.01 in
08:44 40.8 °F 39.5 °F 29.97 in SW 0.2 mph 1.2 mph 95 % 0.01 in
08:49 40.9 °F 39.6 °F 29.97 in SW 0.7 mph 2.3 mph 95 % 0.01 in
08:54 40.9 °F 39.6 °F 29.97 in West 1.6 mph 3.5 mph 95 % 0.01 in
08:59 41.0 °F 39.7 °F 29.97 in West 0.1 mph 2.0 mph 95 % 0.00 in
09:04 41.1 °F 39.8 °F 29.97 in SW 1.2 mph 3.5 mph 95 % 0.00 in
09:09 41.1 °F 39.8 °F 29.97 in WSW 0.3 mph 2.3 mph 95 % 0.00 in
09:15 41.2 °F 39.9 °F 29.97 in Calm   1.0 mph 95 % 0.00 in
09:20 41.3 °F 40.0 °F 29.97 in Calm   2.0 mph 95 % 0.00 in
09:25 41.3 °F 40.0 °F 29.97 in Calm   3.0 mph 95 % 0.00 in
09:30 41.4 °F 40.1 °F 29.97 in Calm   2.0 mph 95 % 0.00 in
09:35 41.5 °F 40.2 °F 29.97 in WSW 2.0 mph 6.0 mph 95 % 0.00 in
09:40 41.6 °F 40.3 °F 29.97 in WSW 1.0 mph 3.0 mph 95 % 0.00 in
09:45 41.7 °F 40.4 °F 29.97 in WSW 1.0 mph 4.0 mph 95 % 0.00 in
09:50 41.8 °F 40.5 °F 29.97 in WSW 1.0 mph 4.0 mph 95 % 0.00 in
09:55 41.9 °F 40.6 °F 29.97 in SW 1.0 mph 5.0 mph 95 % 0.00 in
10:00 42.0 °F 40.7 °F 29.97 in West 1.0 mph 3.5 mph 95 % 0.00 in
10:05 42.2 °F 40.9 °F 29.97 in SW 0.7 mph 2.3 mph 95 % 0.00 in
10:10 42.4 °F 41.3 °F 29.97 in WSW 3.3 mph 4.0 mph 96 % 0.00 in
10:15 42.6 °F 41.5 °F 29.97 in WSW 1.0 mph 3.5 mph 96 % 0.00 in
10:20 42.9 °F 41.8 °F 29.97 in West 2.5 mph 3.5 mph 96 % 0.00 in
10:25 43.2 °F 42.1 °F 29.97 in WNW 3.8 mph 6.0 mph 96 % 0.00 in
10:30 43.3 °F 42.2 °F 29.96 in SW 3.8 mph 5.8 mph 96 % 0.00 in
10:36 43.4 °F 42.1 °F 29.96 in SSW 2.9 mph 6.0 mph 95 % 0.00 in
10:41 43.6 °F 42.3 °F 29.95 in SSW 4.6 mph 5.0 mph 95 % 0.00 in
10:46 43.8 °F 42.5 °F 29.95 in SW 2.5 mph 8.1 mph 95 % 0.00 in
10:51 44.0 °F 42.7 °F 29.95 in WSW 5.5 mph 8.1 mph 95 % 0.00 in
10:56 44.3 °F 43.0 °F 29.93 in WSW 2.6 mph 3.5 mph 95 % 0.00 in
11:01 44.5 °F 43.2 °F 29.93 in SW 2.5 mph 5.8 mph 95 % 0.00 in
11:02 44.6 °F 43.3 °F 29.93 in SW 2.4 mph 5.8 mph 95 % 0.00 in
11:07 44.9 °F 43.3 °F 29.93 in SSW 5.6 mph 7.0 mph 94 % 0.00 in
11:12 45.1 °F 43.5 °F 29.93 in WSW 2.8 mph 5.8 mph 94 % 0.00 in
11:17 45.4 °F 43.5 °F 29.93 in West 3.5 mph 8.1 mph 93 % 0.00 in
11:22 45.6 °F 43.4 °F 29.92 in WSW 4.3 mph 6.9 mph 92 % 0.00 in
11:27 45.7 °F 42.9 °F 29.93 in West 6.8 mph 8.1 mph 90 % 0.00 in
11:32 45.8 °F 43.0 °F 29.93 in West 5.1 mph 9.2 mph 90 % 0.00 in
11:38 45.9 °F 42.5 °F 29.93 in NW 7.2 mph 11.5 mph 88 % 0.00 in
11:43 45.9 °F 42.2 °F 29.93 in WSW 5.8 mph 10.4 mph 87 % 0.00 in
11:48 45.9 °F 41.9 °F 29.93 in WSW 3.1 mph 6.9 mph 86 % 0.00 in
11:53 45.9 °F 41.6 °F 29.92 in WSW 6.6 mph 9.2 mph 85 % 0.00 in
11:58 45.9 °F 41.6 °F 29.92 in SW 5.3 mph 8.1 mph 85 % 0.00 in
12:03 46.0 °F 41.7 °F 29.91 in SSW 5.0 mph 7.0 mph 85 % 0.00 in
12:08 46.1 °F 41.5 °F 29.91 in West 5.0 mph 8.1 mph 84 % 0.00 in
12:13 46.3 °F 41.7 °F 29.91 in WSW 4.9 mph 9.2 mph 84 % 0.00 in
12:18 46.5 °F 41.6 °F 29.91 in West 4.1 mph 10.4 mph 83 % 0.00 in
12:23 46.7 °F 41.8 °F 29.91 in WSW 5.2 mph 9.2 mph 83 % 0.00 in
12:29 46.9 °F 42.0 °F 29.91 in West 2.7 mph 5.8 mph 83 % 0.00 in
12:34 47.1 °F 42.2 °F 29.91 in West 5.8 mph 10.0 mph 83 % 0.00 in
12:39 47.2 °F 42.0 °F 29.91 in WSW 5.4 mph 10.4 mph 82 % 0.00 in
12:44 47.5 °F 42.3 °F 29.91 in West 6.0 mph 11.5 mph 82 % 0.00 in
12:49 47.6 °F 42.1 °F 29.91 in West 6.7 mph 11.5 mph 81 % 0.00 in
12:54 47.6 °F 42.1 °F 29.91 in WSW 6.2 mph 10.4 mph 81 % 0.00 in
12:59 47.6 °F 41.7 °F 29.91 in WNW 5.3 mph 9.2 mph 80 % 0.00 in
13:04 47.6 °F 41.7 °F 29.90 in WNW 7.4 mph 11.5 mph 80 % 0.00 in
13:09 47.6 °F 41.7 °F 29.91 in WNW 3.3 mph 3.5 mph 80 % 0.00 in
13:14 47.8 °F 41.9 °F 29.90 in WNW 3.6 mph 6.9 mph 80 % 0.00 in
13:20 47.9 °F 41.7 °F 29.91 in North 5.9 mph 8.1 mph 79 % 0.00 in
13:25 47.9 °F 41.4 °F 29.91 in WNW 2.0 mph 12.0 mph 78 % 0.00 in
13:30 48.1 °F 41.9 °F 29.92 in WNW 5.0 mph 12.0 mph 79 % 0.00 in
13:35 48.2 °F 42.0 °F 29.91 in West 6.0 mph 12.0 mph 79 % 0.00 in
13:40 48.4 °F 41.5 °F 29.92 in West 5.0 mph 8.0 mph 77 % 0.00 in
13:45 48.5 °F 41.3 °F 29.92 in West 5.0 mph 9.0 mph 76 % 0.00 in
13:50 48.5 °F 41.3 °F 29.92 in WNW 3.0 mph 12.0 mph 76 % 0.00 in
13:55 48.5 °F 41.6 °F 29.92 in West 5.0 mph 9.0 mph 77 % 0.00 in
14:00 48.4 °F 41.2 °F 29.92 in West 3.9 mph 5.8 mph 76 % 0.00 in
14:05 48.3 °F 40.7 °F 29.92 in WSW 4.4 mph 9.2 mph 75 % 0.00 in
14:10 48.3 °F 40.4 °F 29.92 in WNW 4.2 mph 9.2 mph 74 % 0.00 in
14:15 48.1 °F 39.5 °F 29.93 in NW 4.6 mph 8.1 mph 72 % 0.00 in
14:20 48.0 °F 39.8 °F 29.92 in WNW 4.9 mph 8.1 mph 73 % 0.00 in
14:25 47.9 °F 39.3 °F 29.92 in NW 6.2 mph 11.5 mph 72 % 0.00 in
14:26 47.9 °F 39.3 °F 29.93 in WNW 4.4 mph 11.5 mph 72 % 0.00 in
14:31 47.8 °F 39.2 °F 29.93 in SW 6.1 mph 8.0 mph 72 % 0.00 in
14:36 47.7 °F 39.1 °F 29.93 in WSW 3.7 mph 10.4 mph 72 % 0.00 in
14:41 47.6 °F 39.0 °F 29.93 in NW 3.4 mph 7.0 mph 72 % 0.00 in
14:46 47.6 °F 39.0 °F 29.93 in WNW 3.6 mph 8.1 mph 72 % 0.00 in
14:51 47.6 °F 38.7 °F 29.94 in WNW 4.8 mph 13.0 mph 71 % 0.00 in
14:56 47.6 °F 38.3 °F 29.94 in West 2.7 mph 5.0 mph 70 % 0.00 in
15:01 47.7 °F 38.4 °F 29.94 in WSW 4.7 mph 7.0 mph 70 % 0.00 in
15:06 47.6 °F 37.9 °F 29.95 in NNW 2.6 mph 6.9 mph 69 % 0.00 in
15:11 47.6 °F 37.6 °F 29.94 in West 4.4 mph 9.2 mph 68 % 0.00 in
15:17 47.5 °F 37.5 °F 29.94 in NW 4.1 mph 8.1 mph 68 % 0.00 in
15:22 47.4 °F 37.4 °F 29.94 in NW 2.3 mph 5.8 mph 68 % 0.00 in
15:27 47.4 °F 37.0 °F 29.95 in West 3.4 mph 5.8 mph 67 % 0.00 in
15:32 47.4 °F 37.0 °F 29.95 in West 4.4 mph 8.0 mph 67 % 0.00 in
15:37 47.4 °F 37.0 °F 29.95 in WNW 4.0 mph 5.8 mph 67 % 0.00 in
15:43 47.4 °F 37.0 °F 29.95 in NW 5.9 mph 8.1 mph 67 % 0.00 in
15:48 47.4 °F 37.0 °F 29.95 in WNW 5.0 mph 11.5 mph 67 % 0.00 in
15:53 47.5 °F 37.8 °F 29.95 in WNW 3.1 mph 4.6 mph 69 % 0.00 in
15:59 47.4 °F 37.4 °F 29.95 in NNW 4.1 mph 9.2 mph 68 % 0.00 in
16:04 47.4 °F 37.4 °F 29.95 in NNW 4.7 mph 10.4 mph 68 % 0.00 in
16:09 47.3 °F 37.3 °F 29.95 in NW 4.1 mph 10.4 mph 68 % 0.00 in
16:16 47.2 °F 37.2 °F 29.96 in NW 1.8 mph 5.8 mph 68 % 0.00 in
16:21 47.1 °F 37.1 °F 29.97 in NNW 6.7 mph 10.4 mph 68 % 0.00 in
16:27 47.0 °F 37.0 °F 29.97 in WNW 2.2 mph 10.4 mph 68 % 0.00 in
16:33 46.9 °F 36.9 °F 29.97 in NNW 3.8 mph 6.9 mph 68 % 0.00 in
16:38 46.9 °F 36.9 °F 29.98 in NW 4.4 mph 6.9 mph 68 % 0.00 in
16:44 46.8 °F 36.8 °F 29.99 in NW 4.4 mph 5.8 mph 68 % 0.00 in
16:49 46.8 °F 37.2 °F 29.99 in NNW 3.2 mph 3.5 mph 69 % 0.00 in
16:54 46.8 °F 37.5 °F 29.99 in WNW 3.7 mph 10.4 mph 70 % 0.00 in
16:59 46.8 °F 37.9 °F 29.99 in NW 4.5 mph 7.0 mph 71 % 0.00 in
17:04 46.9 °F 37.6 °F 29.99 in North 6.0 mph 12.7 mph 70 % 0.00 in
17:09 46.9 °F 38.0 °F 29.99 in NNW 6.2 mph 13.8 mph 71 % 0.00 in
17:14 46.9 °F 38.3 °F 29.99 in WNW 5.3 mph 11.5 mph 72 % 0.00 in
17:19 46.7 °F 37.8 °F 29.99 in WNW 4.1 mph 8.1 mph 71 % 0.00 in
17:24 46.6 °F 37.0 °F 29.99 in West 1.9 mph 10.4 mph 69 % 0.00 in
17:29 46.4 °F 36.0 °F 29.99 in WNW 3.9 mph 11.5 mph 67 % 0.00 in
17:35 46.3 °F 36.7 °F 29.99 in WNW 5.6 mph 11.5 mph 69 % 0.00 in
17:40 46.2 °F 36.6 °F 29.99 in WNW 6.0 mph 10.0 mph 69 % 0.00 in
17:45 46.0 °F 36.4 °F 29.98 in NW 7.0 mph 11.5 mph 69 % 0.00 in
17:50 45.9 °F 36.7 °F 29.98 in NW 3.0 mph 12.0 mph 70 % 0.00 in
17:55 45.8 °F 36.6 °F 29.98 in WNW 3.0 mph 7.0 mph 70 % 0.00 in
18:00 45.7 °F 36.8 °F 29.98 in NW 5.4 mph 10.0 mph 71 % 0.00 in
18:05 45.6 °F 36.7 °F 29.98 in WNW 3.0 mph 10.0 mph 71 % 0.00 in
18:10 45.5 °F 36.6 °F 29.98 in WNW 3.0 mph 9.0 mph 71 % 0.00 in
18:15 45.4 °F 36.5 °F 29.98 in WNW 2.2 mph 4.0 mph 71 % 0.00 in
18:20 45.3 °F 36.5 °F 29.98 in NW 2.0 mph 7.0 mph 71 % 0.00 in
18:25 45.2 °F 36.4 °F 29.99 in NW 5.0 mph 10.0 mph 71 % 0.00 in
18:30 45.2 °F 36.4 °F 29.99 in WNW 4.5 mph 6.9 mph 71 % 0.00 in
18:35 45.1 °F 35.9 °F 29.99 in NW 5.0 mph 9.0 mph 70 % 0.00 in
18:40 45.1 °F 35.9 °F 29.99 in NW 5.0 mph 10.0 mph 70 % 0.00 in
18:45 45.1 °F 35.5 °F 29.99 in NW 3.0 mph 12.0 mph 69 % 0.00 in
18:50 45.1 °F 35.2 °F 29.99 in NW 6.0 mph 13.0 mph 68 % 0.00 in
18:55 45.1 °F 35.2 °F 29.99 in NW 3.0 mph 12.0 mph 68 % 0.00 in
19:01 45.1 °F 34.8 °F 29.99 in NW 3.0 mph 8.1 mph 67 % 0.00 in
19:06 45.1 °F 34.8 °F 29.99 in NW 2.2 mph 5.8 mph 67 % 0.00 in
19:11 45.1 °F 35.2 °F 30.00 in NW 4.9 mph 8.1 mph 68 % 0.00 in
19:14 45.0 °F 34.3 °F 30.00 in WNW 6.2 mph 10.4 mph 66 % 0.00 in
19:16 45.0 °F 34.3 °F 30.00 in NNW 8.4 mph 15.0 mph 66 % 0.00 in
19:22 45.0 °F 34.3 °F 30.00 in North 5.4 mph 16.1 mph 66 % 0.00 in
19:27 45.0 °F 34.3 °F 30.00 in WNW 3.7 mph 12.7 mph 66 % 0.00 in
19:32 44.9 °F 34.2 °F 30.00 in NW 4.7 mph 12.7 mph 66 % 0.00 in
19:37 44.9 °F 34.2 °F 30.01 in NW 3.0 mph 8.1 mph 66 % 0.00 in
19:42 44.9 °F 34.2 °F 30.01 in NW 4.0 mph 8.0 mph 66 % 0.00 in
19:47 44.9 °F 34.2 °F 30.01 in NW 4.9 mph 11.5 mph 66 % 0.00 in
19:52 44.9 °F 34.2 °F 30.01 in WNW 5.4 mph 8.1 mph 66 % 0.00 in
19:57 44.8 °F 34.1 °F 30.01 in WNW 5.1 mph 5.8 mph 66 % 0.00 in
20:02 44.8 °F 34.5 °F 30.01 in NW 2.0 mph 6.9 mph 67 % 0.00 in
20:07 44.7 °F 34.4 °F 30.01 in NW 2.4 mph 8.1 mph 67 % 0.00 in
20:13 44.6 °F 34.3 °F 30.02 in NW 3.6 mph 8.1 mph 67 % 0.00 in
20:18 44.5 °F 33.8 °F 30.02 in NW 3.6 mph 5.0 mph 66 % 0.00 in
20:23 44.5 °F 33.8 °F 30.02 in NW 4.3 mph 6.9 mph 66 % 0.00 in
20:33 44.3 °F 33.7 °F 30.02 in WNW 3.7 mph 6.9 mph 66 % 0.00 in
20:38 44.3 °F 34.0 °F 30.03 in NW 4.5 mph 8.1 mph 67 % 0.00 in
20:43 44.3 °F 34.4 °F 30.03 in NW 3.5 mph 8.1 mph 68 % 0.00 in
20:48 44.2 °F 33.9 °F 30.03 in NW 5.8 mph 10.4 mph 67 % 0.00 in
20:53 44.2 °F 33.9 °F 30.04 in WNW 3.5 mph 6.9 mph 67 % 0.00 in
20:58 44.3 °F 34.4 °F 30.04 in NW 4.0 mph 11.5 mph 68 % 0.00 in
21:04 44.3 °F 34.0 °F 30.04 in WNW 6.7 mph 6.7 mph 67 % 0.00 in
21:09 44.3 °F 33.7 °F 30.04 in WNW 5.2 mph 11.5 mph 66 % 0.00 in
21:14 44.3 °F 33.7 °F 30.04 in NNW 4.6 mph 4.6 mph 66 % 0.00 in
21:19 44.3 °F 33.7 °F 30.05 in WNW 3.9 mph 9.2 mph 66 % 0.00 in
21:24 44.3 °F 33.7 °F 30.05 in WNW 4.9 mph 11.5 mph 66 % 0.00 in
21:29 44.2 °F 33.6 °F 30.05 in SW 4.2 mph 8.1 mph 66 % 0.00 in
21:34 44.2 °F 33.6 °F 30.05 in WNW 3.9 mph 6.9 mph 66 % 0.00 in
21:39 44.2 °F 33.6 °F 30.05 in WNW 2.7 mph 4.6 mph 66 % 0.00 in
21:44 44.1 °F 33.5 °F 30.04 in West 3.9 mph 8.1 mph 66 % 0.00 in
21:49 44.0 °F 33.4 °F 30.04 in NW 4.5 mph 9.2 mph 66 % 0.00 in
21:55 43.9 °F 33.3 °F 30.04 in West 3.0 mph 8.1 mph 66 % 0.00 in
22:00 43.9 °F 33.3 °F 30.04 in NW 1.9 mph 8.1 mph 66 % 0.00 in
22:05 43.8 °F 33.2 °F 30.04 in NW 3.0 mph 11.5 mph 66 % 0.00 in
22:10 43.8 °F 33.6 °F 30.05 in West 4.7 mph 8.1 mph 67 % 0.00 in
22:15 43.8 °F 33.6 °F 30.05 in NNW 5.3 mph 12.7 mph 67 % 0.00 in
22:20 43.8 °F 33.2 °F 30.05 in West 6.2 mph 10.4 mph 66 % 0.00 in
22:25 43.8 °F 33.6 °F 30.04 in WNW 6.6 mph 11.5 mph 67 % 0.00 in
22:30 43.8 °F 33.6 °F 30.05 in WSW 3.9 mph 8.1 mph 67 % 0.00 in
22:35 43.8 °F 33.6 °F 30.05 in North 5.3 mph 10.4 mph 67 % 0.00 in
22:40 43.8 °F 33.6 °F 30.05 in West 5.1 mph 6.9 mph 67 % 0.00 in
22:46 43.7 °F 33.8 °F 30.05 in West 3.2 mph 6.9 mph 68 % 0.00 in
22:51 43.6 °F 33.7 °F 30.05 in WNW 3.7 mph 10.4 mph 68 % 0.00 in
22:56 43.6 °F 33.7 °F 30.05 in WSW 4.9 mph 8.1 mph 68 % 0.00 in
23:01 43.4 °F 33.9 °F 30.05 in NNW 3.8 mph 8.1 mph 69 % 0.00 in
23:06 43.4 °F 33.5 °F 30.05 in West 1.8 mph 3.5 mph 68 % 0.00 in
23:11 43.3 °F 33.4 °F 30.05 in WNW 6.8 mph 12.0 mph 68 % 0.00 in
23:16 43.2 °F 33.3 °F 30.05 in NW 3.0 mph 7.0 mph 68 % 0.00 in
23:21 43.2 °F 33.3 °F 30.05 in WNW 3.9 mph 11.5 mph 68 % 0.00 in
23:26 43.1 °F 33.3 °F 30.05 in WNW 3.1 mph 4.6 mph 68 % 0.00 in
23:31 43.1 °F 33.3 °F 30.05 in WSW 2.7 mph 5.8 mph 68 % 0.00 in
23:36 43.1 °F 33.6 °F 30.05 in WSW 4.1 mph 5.0 mph 69 % 0.00 in
23:41 43.0 °F 33.5 °F 30.05 in WSW 3.5 mph 7.0 mph 69 % 0.00 in
23:47 42.9 °F 33.4 °F 30.06 in WNW 3.3 mph 6.9 mph 69 % 0.00 in
23:52 42.8 °F 33.3 °F 30.06 in WNW 2.3 mph 4.6 mph 69 % 0.00 in
23:57 42.7 °F 33.2 °F 30.06 in WNW 3.3 mph 10.4 mph 69 % 0.00 in
Crab Meadow Weather
Compliments of Weather Underground - 3 mb

Script developed by  Jim McMurry - jmcmurry@mwt.net Adapted for the template by  Wim van der Kuil - Leuven-Template.eu

Recycling: Every ton of mixed paper recycled can save the energy equivalent of 185 gallons of gas.